Aeroporto :
LOGIN :

Iscrizione | Disclaimer

   EN    FR    IT 

 










Sommario :    VFR   VFR Marginale   IFR   IFR Intensivo   IFR Molto Intensivo
Visibilità : 
Base nubi : 
>= 8 km
>= 3000ft
5 / 8 km
1000 / 3000 ft
1500m / 5 km
500 / 1000 ft
800 / 1500m
200 / 500 ft
< 800m
< 200 ft
Simboli :   Temporali  Nebbia  Neve Forte  Precipitazioni Forti  Vento > 20 kt
SIGMETs :   Varie  Temporali  Ghiacco  Turbolenza  Onda orograficha  Ceneri Vulcaniche






- Altitudine del aeroporto : 675 ft
- Codice IATA : RZE


EPRZ - Rzeszow-Jasionka

ULTIMO METAR :
  • 210030Z 10015KT 9999 SCT017 10/08 Q1017

METARs OBSOLETI :
  • 210000Z 10014KT 9999 SCT017 11/08 Q1017
  • 202330Z 10013KT 9999 OVC018 11/09 Q1017
  • 202300Z 11015KT 9999 OVC015 11/09 Q1017
  • 202230Z 10016KT 9999 BKN015 11/09 Q1017
  • 202200Z 10017KT 9999 BKN015 11/09 Q1017

TAF TAF EPRZ
Valido dal 21 a 00 ore il 22 a 00 ore UTC


202330Z 2100/2124 13007KT 9999 OVC017
TEMPO 2100/2108 4000 -RA BR BKN007
PROB30
TEMPO 2101/2107 2500 RA BR BKN004



MetMap, La meteo Aeronautica in un colpo d'occhio ! - Copyright ORBIFLY Dicembre 2007 - Disclaimer

ORBIFLY MET'MAP TEAM :

Programmazione e sviluppo : Alexandra Zaïnal
Concezione e sviluppo : Baudouin d'Aumeries
Co-Programmazione e sviluppo : Marc-Olivier Méhu
Supporto tecnico e logistico : Manuel Goepfert
Aiuto per la traduzione : Arnaldo La Scala

Contatto : metmap@orbifly.com




FONTI E CREDITI :

   NOAA